createdAt,value
2022-10-24T00:01:50.808Z,15.10
2022-10-24T00:06:34.294Z,15.00
2022-10-24T00:11:19.739Z,15.10
2022-10-24T00:16:03.261Z,15.10
2022-10-24T00:20:48.228Z,15.20
2022-10-24T00:25:32.003Z,15.30
2022-10-24T00:30:15.615Z,15.70
2022-10-24T00:34:59.127Z,15.80
2022-10-24T00:39:44.367Z,15.60
2022-10-24T00:44:30.291Z,15.40
2022-10-24T00:49:16.487Z,15.40
2022-10-24T00:54:04.261Z,15.30
2022-10-24T00:58:51.045Z,15.20
2022-10-24T01:03:34.562Z,15.10
2022-10-24T01:08:28.779Z,15.10
2022-10-24T01:13:23.806Z,15.00
2022-10-24T01:18:16.367Z,15.00
2022-10-24T01:23:33.125Z,15.10
2022-10-24T01:28:19.993Z,15.20
2022-10-24T01:33:10.751Z,15.30
2022-10-24T01:38:02.958Z,15.30
2022-10-24T01:42:48.992Z,15.30
2022-10-24T01:47:39.108Z,15.50
2022-10-24T01:52:26.307Z,15.50
2022-10-24T01:57:09.788Z,15.40
2022-10-24T02:01:54.596Z,15.50
2022-10-24T02:06:42.928Z,15.50
2022-10-24T02:11:27.905Z,15.60
2022-10-24T02:16:11.466Z,15.40
2022-10-24T02:21:00.571Z,15.30
2022-10-24T02:25:47.695Z,15.30
2022-10-24T02:30:36.855Z,15.20
2022-10-24T02:35:23.907Z,15.10
2022-10-24T02:40:11.120Z,15.00
2022-10-24T02:44:54.719Z,15.00
2022-10-24T02:49:40.743Z,15.10
2022-10-24T02:54:24.268Z,15.10
2022-10-24T03:03:56.093Z,16.10
2022-10-24T03:08:40.973Z,15.90
2022-10-24T03:13:24.517Z,15.60
2022-10-24T03:18:08.041Z,15.20
2022-10-24T03:22:51.718Z,15.10
2022-10-24T03:27:36.655Z,15.00
2022-10-24T03:32:20.271Z,15.00
2022-10-24T03:37:03.779Z,15.10
2022-10-24T03:41:47.270Z,14.90
2022-10-24T03:46:32.069Z,14.80
2022-10-24T03:51:15.736Z,14.80
2022-10-24T03:56:00.548Z,14.90
2022-10-24T04:00:44.318Z,14.90
2022-10-24T04:05:29.440Z,15.00
2022-10-24T04:10:13.248Z,15.00
2022-10-24T04:15:00.909Z,15.00
2022-10-24T04:19:47.451Z,15.00
2022-10-24T04:24:32.352Z,14.90
2022-10-24T04:29:15.844Z,14.90
2022-10-24T04:33:59.546Z,14.90
2022-10-24T04:38:43.104Z,14.80
2022-10-24T04:43:28.228Z,14.70
2022-10-24T04:48:11.700Z,14.60
2022-10-24T04:52:55.252Z,14.60
2022-10-24T04:57:38.729Z,14.50
2022-10-24T05:02:23.658Z,14.40
2022-10-24T05:07:07.203Z,14.30
2022-10-24T05:11:50.702Z,14.30
2022-10-24T05:16:34.598Z,14.30
2022-10-24T05:21:19.441Z,14.30
2022-10-24T05:26:02.903Z,14.20
2022-10-24T05:30:46.849Z,14.20
2022-10-24T05:35:30.691Z,14.10
2022-10-24T05:40:15.942Z,14.10
2022-10-24T05:44:59.373Z,13.90
2022-10-24T05:49:42.783Z,13.80
2022-10-24T05:54:33.244Z,13.90
2022-10-24T05:59:27.623Z,13.90
2022-10-24T06:04:14.084Z,14.00
2022-10-24T06:08:58.952Z,13.90
2022-10-24T06:13:42.770Z,14.00
2022-10-24T06:18:28.264Z,14.00
2022-10-24T06:23:11.824Z,14.00
2022-10-24T06:27:55.420Z,14.10
2022-10-24T06:32:42.173Z,14.30
2022-10-24T06:37:30.363Z,14.40
2022-10-24T06:42:13.855Z,14.40
2022-10-24T06:46:57.398Z,14.40
2022-10-24T06:51:41.543Z,14.50
2022-10-24T06:56:26.890Z,14.50
2022-10-24T07:01:12.370Z,14.50
2022-10-24T07:05:56.103Z,14.50
2022-10-24T07:10:39.740Z,14.40
2022-10-24T07:15:26.994Z,14.50
2022-10-24T07:20:12.508Z,14.40
2022-10-24T07:24:57.069Z,14.40
2022-10-24T07:29:41.054Z,14.40
2022-10-24T07:34:26.039Z,14.50
2022-10-24T07:39:10.323Z,14.50
2022-10-24T07:43:55.230Z,14.70
2022-10-24T07:48:42.528Z,14.80
2022-10-24T07:53:27.816Z,14.70
2022-10-24T07:58:12.572Z,14.70
2022-10-24T08:02:56.310Z,14.70
2022-10-24T08:07:40.033Z,14.80
2022-10-24T08:12:24.889Z,14.80
2022-10-24T08:17:08.543Z,14.70
2022-10-24T08:21:53.048Z,14.60
2022-10-24T08:26:37.490Z,14.60
2022-10-24T08:31:24.005Z,14.60
2022-10-24T08:36:17.227Z,14.60
2022-10-24T08:41:01.490Z,14.50
2022-10-24T08:45:53.425Z,14.60
2022-10-24T08:50:43.205Z,14.50
2022-10-24T08:55:48.155Z,14.70
2022-10-24T09:00:38.134Z,14.80
2022-10-24T09:05:26.472Z,14.70
2022-10-24T09:10:18.079Z,14.90
2022-10-24T09:15:02.006Z,14.90
2022-10-24T09:19:50.005Z,14.90
2022-10-24T09:24:40.790Z,15.00
2022-10-24T09:29:26.006Z,15.00
2022-10-24T09:34:12.575Z,15.00
2022-10-24T09:38:56.221Z,15.00
2022-10-24T09:43:47.288Z,14.90
2022-10-24T09:48:48.909Z,15.00
2022-10-24T09:53:35.027Z,15.10
2022-10-24T09:58:21.769Z,15.20
2022-10-24T10:03:07.199Z,15.40
2022-10-24T10:07:53.151Z,15.60
2022-10-24T10:12:38.585Z,15.50
2022-10-24T10:17:25.107Z,15.30
2022-10-24T10:22:23.978Z,15.20
2022-10-24T10:27:28.104Z,15.20
2022-10-24T10:32:19.135Z,15.10
2022-10-24T10:37:22.708Z,15.10
2022-10-24T10:42:13.265Z,15.10
2022-10-24T10:47:11.757Z,15.00
2022-10-24T10:51:59.945Z,14.70
2022-10-24T10:56:49.950Z,14.60
2022-10-24T11:01:48.447Z,14.50
2022-10-24T11:06:44.215Z,14.40
2022-10-24T11:11:32.584Z,14.30
2022-10-24T11:16:21.777Z,14.20
2022-10-24T11:21:08.440Z,14.10
2022-10-24T11:25:57.305Z,14.10
2022-10-24T11:30:49.329Z,14.10
2022-10-24T11:35:34.604Z,14.00
2022-10-24T11:40:21.909Z,13.90
2022-10-24T11:45:12.555Z,13.80
2022-10-24T11:50:07.574Z,13.80
2022-10-24T11:54:56.029Z,13.80
2022-10-24T11:59:42.465Z,13.80
2022-10-24T12:04:51.777Z,13.90
2022-10-24T12:10:06.815Z,14.00
2022-10-24T12:15:13.049Z,14.20
2022-10-24T12:19:58.434Z,14.10
2022-10-24T12:24:43.050Z,14.00
2022-10-24T12:29:28.337Z,14.10
2022-10-24T12:34:48.852Z,14.10
2022-10-24T12:39:36.056Z,14.00
2022-10-24T12:44:43.681Z,14.10
2022-10-24T12:49:31.419Z,14.20
2022-10-24T12:54:19.487Z,14.20
2022-10-24T12:59:19.089Z,14.20
2022-10-24T13:04:25.273Z,14.30
2022-10-24T13:09:30.023Z,14.10
2022-10-24T13:14:59.032Z,14.10
2022-10-24T13:19:43.213Z,13.90
2022-10-24T13:24:31.019Z,13.70
2022-10-24T13:29:17.255Z,13.60
2022-10-24T13:34:17.416Z,13.60
2022-10-24T13:39:04.197Z,13.60
2022-10-24T13:43:50.979Z,13.60
2022-10-24T13:48:40.419Z,13.50
2022-10-24T13:53:30.996Z,13.50
2022-10-24T13:58:19.690Z,13.50
2022-10-24T14:03:05.919Z,13.40
2022-10-24T14:07:50.606Z,13.60
2022-10-24T14:12:36.603Z,13.70
2022-10-24T14:17:24.005Z,13.60
2022-10-24T14:22:20.369Z,13.60
2022-10-24T14:27:03.957Z,13.60
2022-10-24T14:31:57.943Z,13.50
2022-10-24T14:36:41.569Z,13.30
2022-10-24T14:41:29.960Z,13.60
2022-10-24T14:46:35.145Z,13.90
2022-10-24T14:51:27.593Z,14.00
2022-10-24T14:56:24.153Z,13.90
2022-10-24T15:01:07.653Z,13.90
2022-10-24T15:05:59.845Z,13.70
2022-10-24T15:10:45.165Z,13.90
2022-10-24T15:15:34.100Z,13.80
2022-10-24T15:20:21.294Z,13.50
2022-10-24T15:25:08.056Z,13.30
2022-10-24T15:29:53.114Z,13.20
2022-10-24T15:34:36.562Z,13.20
2022-10-24T15:39:22.261Z,13.00
2022-10-24T15:44:14.934Z,13.00
2022-10-24T15:48:59.767Z,12.90
2022-10-24T15:53:43.646Z,13.00
2022-10-24T15:58:29.190Z,12.90
2022-10-24T16:03:16.719Z,12.90
2022-10-24T16:08:01.859Z,12.90
2022-10-24T16:12:45.901Z,12.80
2022-10-24T16:17:29.595Z,12.90
2022-10-24T16:22:13.529Z,12.90
2022-10-24T16:26:59.002Z,12.90
2022-10-24T16:31:45.228Z,12.90
2022-10-24T16:36:29.565Z,12.80
2022-10-24T16:41:17.026Z,12.70
2022-10-24T16:46:03.932Z,12.70
2022-10-24T16:50:48.081Z,12.60
2022-10-24T16:55:32.885Z,12.40
2022-10-24T17:00:18.271Z,12.50
2022-10-24T17:05:04.840Z,12.50
2022-10-24T17:09:49.362Z,12.50
2022-10-24T17:14:35.487Z,12.40
2022-10-24T17:19:20.411Z,12.40
2022-10-24T17:24:10.921Z,12.30
2022-10-24T17:28:55.650Z,12.30
2022-10-24T17:33:40.979Z,12.20
2022-10-24T17:38:39.387Z,12.30
2022-10-24T17:43:27.135Z,12.10
2022-10-24T17:48:12.818Z,12.10
2022-10-24T17:53:00.107Z,12.20
2022-10-24T17:57:46.306Z,12.30
2022-10-24T18:02:36.975Z,12.40
2022-10-24T18:07:22.100Z,12.50
2022-10-24T18:12:06.889Z,12.50
2022-10-24T18:16:52.073Z,12.60
2022-10-24T18:21:39.572Z,12.60
2022-10-24T18:26:26.829Z,12.80
2022-10-24T18:31:14.188Z,12.70
2022-10-24T18:36:00.727Z,12.70
2022-10-24T18:40:47.798Z,12.60
2022-10-24T18:45:33.026Z,12.40
2022-10-24T18:50:22.107Z,12.30
2022-10-24T18:55:16.012Z,12.30
2022-10-24T19:00:12.965Z,12.20
2022-10-24T19:05:08.088Z,12.40
2022-10-24T19:09:53.716Z,12.40
2022-10-24T19:14:39.438Z,12.50
2022-10-24T19:19:29.585Z,12.40
2022-10-24T19:24:15.392Z,12.50
2022-10-24T19:29:03.596Z,12.60
2022-10-24T19:33:52.248Z,12.60
2022-10-24T19:38:38.907Z,12.60
2022-10-24T19:43:23.999Z,12.60
2022-10-24T19:48:09.755Z,12.60
2022-10-24T19:53:01.644Z,12.70
2022-10-24T19:57:48.462Z,12.90
2022-10-24T20:02:34.834Z,13.00
2022-10-24T20:07:21.369Z,13.10
2022-10-24T20:12:07.122Z,13.10
2022-10-24T20:16:53.390Z,13.20
2022-10-24T20:21:38.074Z,13.20
2022-10-24T20:26:24.154Z,13.20
2022-10-24T20:31:10.025Z,13.30
2022-10-24T20:36:03.786Z,13.20
2022-10-24T20:40:50.449Z,13.30
2022-10-24T20:45:34.966Z,13.30
2022-10-24T20:50:18.694Z,13.30
2022-10-24T20:55:11.041Z,13.20
2022-10-24T21:00:03.843Z,13.10
2022-10-24T21:04:47.524Z,13.10
2022-10-24T21:09:33.339Z,13.20
2022-10-24T21:14:30.370Z,13.30
2022-10-24T21:19:13.953Z,13.30
2022-10-24T21:24:02.502Z,13.40
2022-10-24T21:28:49.417Z,13.50
2022-10-24T21:33:34.836Z,13.60
2022-10-24T21:38:18.352Z,13.50
2022-10-24T21:43:03.043Z,13.50
2022-10-24T21:47:46.505Z,13.40
2022-10-24T21:52:31.436Z,13.30
2022-10-24T21:57:14.902Z,13.30
2022-10-24T22:01:58.446Z,13.30
2022-10-24T22:06:42.958Z,13.20
2022-10-24T22:11:30.381Z,13.10
2022-10-24T22:16:15.168Z,13.00
2022-10-24T22:20:58.751Z,13.10
2022-10-24T22:25:42.543Z,13.00
2022-10-24T22:30:27.391Z,13.10
2022-10-24T22:35:12.062Z,13.20
2022-10-24T22:39:56.319Z,13.10
2022-10-24T22:44:40.365Z,13.20
2022-10-24T22:49:33.953Z,13.10
2022-10-24T22:54:23.144Z,13.10
2022-10-24T22:59:07.079Z,13.20
2022-10-24T23:04:01.953Z,13.20
2022-10-24T23:08:47.406Z,13.30
2022-10-24T23:13:31.633Z,13.40
2022-10-24T23:18:17.580Z,13.40
2022-10-24T23:23:16.156Z,13.40
2022-10-24T23:28:11.279Z,13.30
2022-10-24T23:32:55.521Z,13.20
2022-10-24T23:37:41.287Z,13.20
2022-10-24T23:42:25.322Z,13.10
2022-10-24T23:47:18.055Z,13.30
2022-10-24T23:52:12.465Z,13.40
2022-10-24T23:56:56.386Z,13.30
